Hlavní strana
METAR-TAF:

METAR-TAF

Letiště :

Kuusamo, Finsko

zeměpisná šířka: 65-58N, zeměpisná délka: 029-11E, výška: 262 m

Aktuální stav počasí

Zpráva byla vytvořena před 33 minutami, v 17:50 UTC
Západojihozápadní vítr 4 kt
Teplota -5°C
Vlhkost vzduchu 93%
Tlak 1005 hPa
Viditelnost 10 km a více
Skoro jasno ve výšce 800 ft
Zataženo ve výšce 1800 ft
slabé sněžení

METAR: EFKS 181750Z AUTO 25004KT 9999 -SN FEW008 OVC018 M05/M06 Q1005 REFZDZ

Čas: 20:23 (18:23 UTC)

Předpověď počasí

Zpráva byla vytvořena před 12 hodinami a 54 minutami, v 05:29 UTC
Předpověď platná od 18 v 06 UTC do 18 v 10 UTC
Západojihozápadní vítr 5 kt
Viditelnost 10 km a více
Polojasno ve výšce 400 ft
Dočasný
od 18 v 06 UTC do 18 v 10 UTC
Viditelnost: 2500 m
Oblačno až skoro zataženo ve výšce 200 ft
chuchvalce mlhy

TAF: EFKS 180529Z 1806/1810 25005KT 9999 SCT004 TEMPO 1806/1810 2500 BCFG BKN002

Stav a předpovědi počasí z více než 4 000 letišť (zprávy METAR a TAF).

Červené a žluté tečky na mapě představují dostupné meteorologické stanice.

Když kurzor umístíte na tečku, zobrazí se název stanice.

Pak kliknutím zobrazíte stav a předpověď počasí.

Chcete-li změnit mapu, kliknutím na zelené tlačítko se znaménkem +mapu přiblížíte, kliknutím na zelené tlačítko se znaménkem – mapu oddálíte a kliknutím na zelené šipky přejdete na sousední mapy.


METAR-TAF: